GLD1204 SBPJ-SBGO
Flight info
| Callsign | GLD1204 |
|---|---|
| Flight time | 1h 0m |
| Altitude | 39000 |
| Route | EGDOD DCT TOLAT |
| Aircraft | C700/M-SBDGHM1RWXY/LB2 |
Departure
| Time | 2026-04-25 22:38 |
|---|---|
| Airport | Brigadeiro Lysias Rodrigues Airport (SBPJ) |
Arrival
| Time | 2026-04-25 23:39 |
|---|---|
| Airport | Santa Genoveva International Airport (SBGO) |
| Time | Latitude | Longitude | Altitude | Speed | Heading |
|---|---|---|---|---|---|
| 2026-04-25 22:13 | -10.29249 | -48.36063 | 748 ft | 0 kts | 211° |
| 2026-04-25 22:33 | -10.29256 | -48.36067 | 746 ft | 0 kts | 193° |
| 2026-04-25 22:33 | -10.29259 | -48.36066 | 746 ft | 1 kts | 167° |
| 2026-04-25 22:33 | -10.29261 | -48.36057 | 747 ft | 1 kts | 86° |
| 2026-04-25 22:33 | -10.29243 | -48.36039 | 748 ft | 7 kts | 40° |
| 2026-04-25 22:34 | -10.29185 | -48.35998 | 748 ft | 13 kts | 34° |
| 2026-04-25 22:34 | -10.29131 | -48.35961 | 747 ft | 0 kts | 32° |
| 2026-04-25 22:35 | -10.29114 | -48.35949 | 746 ft | 7 kts | 35° |
| 2026-04-25 22:35 | -10.29048 | -48.35910 | 747 ft | 13 kts | 5° |
| 2026-04-25 22:35 | -10.28970 | -48.35991 | 744 ft | 21 kts | 300° |
| 2026-04-25 22:35 | -10.28879 | -48.36139 | 743 ft | 28 kts | 306° |
| 2026-04-25 22:36 | -10.28752 | -48.36313 | 739 ft | 33 kts | 305° |
| 2026-04-25 22:36 | -10.28618 | -48.36509 | 735 ft | 27 kts | 304° |
| 2026-04-25 22:36 | -10.28590 | -48.36600 | 732 ft | 11 kts | 253° |
| 2026-04-25 22:36 | -10.28579 | -48.36655 | 730 ft | 1 kts | 9° |
| 2026-04-25 22:37 | -10.28573 | -48.36654 | 730 ft | 0 kts | 14° |
| 2026-04-25 22:37 | -10.28555 | -48.36643 | 731 ft | 7 kts | 39° |
| 2026-04-25 22:37 | -10.28551 | -48.36618 | 731 ft | 8 kts | 102° |
| 2026-04-25 22:37 | -10.28554 | -48.36611 | 731 ft | 0 kts | 112° |
| 2026-04-25 22:38 | -10.28652 | -48.36461 | 736 ft | 71 kts | 124° |
| 2026-04-25 22:38 | -10.29122 | -48.35733 | 819 ft | 166 kts | 124° |
| 2026-04-25 22:38 | -10.29801 | -48.34777 | 2107 ft | 146 kts | 127° |
| 2026-04-25 22:39 | -10.30391 | -48.33976 | 3284 ft | 165 kts | 126° |
| 2026-04-25 22:39 | -10.30996 | -48.32866 | 3923 ft | 193 kts | 104° |
| 2026-04-25 22:39 | -10.31418 | -48.31515 | 4702 ft | 207 kts | 125° |
| 2026-04-25 22:39 | -10.32485 | -48.30472 | 6038 ft | 223 kts | 135° |
| 2026-04-25 22:40 | -10.33520 | -48.29190 | 7246 ft | 247 kts | 123° |
| 2026-04-25 22:40 | -10.34459 | -48.27654 | 8588 ft | 261 kts | 122° |
| 2026-04-25 22:40 | -10.35791 | -48.26429 | 10135 ft | 271 kts | 152° |
| 2026-04-25 22:40 | -10.37712 | -48.25955 | 11219 ft | 300 kts | 173° |
| 2026-04-25 22:41 | -10.39884 | -48.25875 | 12389 ft | 319 kts | 178° |
| 2026-04-25 22:41 | -10.42124 | -48.25851 | 13946 ft | 325 kts | 177° |
| 2026-04-25 22:41 | -10.44409 | -48.25739 | 15240 ft | 332 kts | 175° |
| 2026-04-25 22:41 | -10.46743 | -48.25595 | 16543 ft | 340 kts | 176° |
| 2026-04-25 22:42 | -10.49136 | -48.25479 | 17846 ft | 347 kts | 177° |
| 2026-04-25 22:42 | -10.51575 | -48.25405 | 18961 ft | 356 kts | 180° |
| 2026-04-25 22:42 | -10.54069 | -48.25733 | 19951 ft | 366 kts | 188° |
| 2026-04-25 22:42 | -10.56619 | -48.26134 | 20936 ft | 375 kts | 186° |
| 2026-04-25 22:43 | -10.59243 | -48.26505 | 21897 ft | 385 kts | 185° |
| 2026-04-25 22:43 | -10.61923 | -48.26903 | 22849 ft | 394 kts | 185° |
| 2026-04-25 22:43 | -10.64625 | -48.27322 | 23709 ft | 403 kts | 185° |
| 2026-04-25 22:43 | -10.67418 | -48.27750 | 24566 ft | 407 kts | 185° |
| 2026-04-25 22:44 | -10.70234 | -48.28172 | 25461 ft | 411 kts | 185° |
| 2026-04-25 22:44 | -10.73079 | -48.28600 | 26326 ft | 416 kts | 185° |
| 2026-04-25 22:44 | -10.75962 | -48.29038 | 27177 ft | 420 kts | 186° |
| 2026-04-25 22:44 | -10.78874 | -48.29480 | 28029 ft | 425 kts | 186° |
| 2026-04-25 22:45 | -10.81811 | -48.29924 | 28834 ft | 430 kts | 186° |
| 2026-04-25 22:45 | -10.84801 | -48.30376 | 29652 ft | 435 kts | 186° |
| 2026-04-25 22:45 | -10.87808 | -48.30832 | 30383 ft | 439 kts | 186° |
| 2026-04-25 22:45 | -10.90850 | -48.31293 | 31077 ft | 443 kts | 186° |
| 2026-04-25 22:46 | -10.93916 | -48.31758 | 31742 ft | 448 kts | 187° |
| 2026-04-25 22:46 | -10.97018 | -48.32145 | 32358 ft | 451 kts | 182° |
| 2026-04-25 22:46 | -11.00129 | -48.32303 | 32953 ft | 455 kts | 181° |
| 2026-04-25 22:46 | -11.03296 | -48.32482 | 33716 ft | 454 kts | 182° |
| 2026-04-25 22:47 | -11.06450 | -48.32684 | 34488 ft | 452 kts | 182° |
| 2026-04-25 22:47 | -11.09584 | -48.32872 | 35212 ft | 450 kts | 182° |
| 2026-04-25 22:47 | -11.12710 | -48.33045 | 35957 ft | 449 kts | 182° |
| 2026-04-25 22:47 | -11.15822 | -48.33224 | 36676 ft | 447 kts | 182° |
| 2026-04-25 22:48 | -11.18921 | -48.33410 | 37344 ft | 446 kts | 182° |
| 2026-04-25 22:48 | -11.22018 | -48.33593 | 37978 ft | 445 kts | 182° |
| 2026-04-25 22:48 | -11.25104 | -48.33773 | 38556 ft | 444 kts | 182° |
| 2026-04-25 22:48 | -11.28159 | -48.33949 | 38905 ft | 446 kts | 183° |
| 2026-04-25 22:49 | -11.31299 | -48.34134 | 38915 ft | 457 kts | 183° |
| 2026-04-25 22:49 | -11.34516 | -48.34325 | 38911 ft | 468 kts | 183° |
| 2026-04-25 22:49 | -11.41147 | -48.34712 | 38924 ft | 480 kts | 183° |
| 2026-04-25 22:50 | -11.47844 | -48.35106 | 38931 ft | 482 kts | 183° |
| 2026-04-25 22:50 | -11.54536 | -48.35497 | 38929 ft | 474 kts | 183° |
| 2026-04-25 22:51 | -11.61075 | -48.35879 | 38927 ft | 479 kts | 183° |
| 2026-04-25 22:51 | -11.67763 | -48.36275 | 38927 ft | 481 kts | 183° |
| 2026-04-25 22:52 | -11.74463 | -48.36667 | 38930 ft | 482 kts | 183° |
| 2026-04-25 22:52 | -11.80026 | -48.36995 | 38929 ft | 482 kts | 183° |
| 2026-04-25 22:53 | -11.87871 | -48.37456 | 38928 ft | 483 kts | 183° |
| 2026-04-25 22:53 | -11.94548 | -48.37849 | 38927 ft | 483 kts | 183° |
| 2026-04-25 22:54 | -12.01271 | -48.38245 | 38929 ft | 485 kts | 183° |
| 2026-04-25 22:54 | -12.08013 | -48.38641 | 38928 ft | 484 kts | 183° |
| 2026-04-25 22:55 | -12.14743 | -48.39038 | 38929 ft | 484 kts | 183° |
| 2026-04-25 22:55 | -12.21432 | -48.39432 | 38931 ft | 485 kts | 183° |
| 2026-04-25 22:56 | -12.28169 | -48.39830 | 38929 ft | 484 kts | 183° |
| 2026-04-25 22:56 | -12.34893 | -48.40227 | 38929 ft | 484 kts | 183° |
| 2026-04-25 22:57 | -12.41625 | -48.40624 | 38930 ft | 484 kts | 183° |
| 2026-04-25 22:57 | -12.48356 | -48.41022 | 38930 ft | 484 kts | 182° |
| 2026-04-25 22:58 | -12.55043 | -48.41418 | 38933 ft | 483 kts | 182° |
| 2026-04-25 22:58 | -12.61752 | -48.41814 | 38934 ft | 483 kts | 182° |
| 2026-04-25 22:59 | -12.68464 | -48.42211 | 38932 ft | 482 kts | 182° |
| 2026-04-25 22:59 | -12.75167 | -48.42608 | 38933 ft | 482 kts | 182° |
| 2026-04-25 23:00 | -12.81866 | -48.43005 | 38929 ft | 481 kts | 181° |
| 2026-04-25 23:00 | -12.88510 | -48.43399 | 38932 ft | 481 kts | 181° |
| 2026-04-25 23:01 | -12.95199 | -48.43795 | 38936 ft | 480 kts | 181° |
| 2026-04-25 23:01 | -13.01884 | -48.44192 | 38933 ft | 480 kts | 181° |
| 2026-04-25 23:02 | -13.08560 | -48.44587 | 38931 ft | 480 kts | 181° |
| 2026-04-25 23:02 | -13.15222 | -48.44984 | 38935 ft | 479 kts | 181° |
| 2026-04-25 23:03 | -13.21891 | -48.45379 | 38942 ft | 479 kts | 181° |
| 2026-04-25 23:03 | -13.28504 | -48.45774 | 38945 ft | 479 kts | 181° |
| 2026-04-25 23:04 | -13.34066 | -48.46103 | 38945 ft | 478 kts | 180° |
| 2026-04-25 23:04 | -13.41790 | -48.46564 | 38949 ft | 477 kts | 180° |
| 2026-04-25 23:05 | -13.48426 | -48.46959 | 38947 ft | 477 kts | 180° |
| 2026-04-25 23:05 | -13.55048 | -48.47354 | 38950 ft | 477 kts | 180° |
| 2026-04-25 23:06 | -13.60571 | -48.47682 | 38951 ft | 476 kts | 180° |
| 2026-04-25 23:06 | -13.67191 | -48.48078 | 38947 ft | 476 kts | 180° |
| 2026-04-25 23:07 | -13.73822 | -48.48473 | 38949 ft | 477 kts | 180° |
| 2026-04-25 23:07 | -13.80442 | -48.48868 | 38948 ft | 477 kts | 180° |
| 2026-04-25 23:08 | -13.87090 | -48.49266 | 38950 ft | 477 kts | 180° |
| 2026-04-25 23:08 | -13.93721 | -48.49663 | 38948 ft | 477 kts | 180° |
| 2026-04-25 23:09 | -14.00350 | -48.50058 | 38948 ft | 477 kts | 180° |
| 2026-04-25 23:09 | -14.06938 | -48.50454 | 38949 ft | 477 kts | 180° |
| 2026-04-25 23:10 | -14.13570 | -48.50850 | 38946 ft | 477 kts | 180° |
| 2026-04-25 23:10 | -14.20207 | -48.51234 | 38948 ft | 478 kts | 180° |
| 2026-04-25 23:11 | -14.26846 | -48.51552 | 38952 ft | 478 kts | 180° |
| 2026-04-25 23:11 | -14.33504 | -48.51910 | 38950 ft | 479 kts | 180° |
| 2026-04-25 23:12 | -14.40156 | -48.52250 | 38957 ft | 478 kts | 180° |
| 2026-04-25 23:12 | -14.46724 | -48.53444 | 38950 ft | 484 kts | 197° |
| 2026-04-25 23:13 | -14.52961 | -48.56034 | 38691 ft | 478 kts | 200° |
| 2026-04-25 23:13 | -14.56020 | -48.57312 | 38427 ft | 472 kts | 200° |
| 2026-04-25 23:13 | -14.59064 | -48.58588 | 38152 ft | 471 kts | 200° |
| 2026-04-25 23:14 | -14.62100 | -48.59869 | 37885 ft | 471 kts | 200° |
| 2026-04-25 23:14 | -14.65141 | -48.61151 | 37625 ft | 473 kts | 200° |
| 2026-04-25 23:14 | -14.68185 | -48.62429 | 37339 ft | 473 kts | 200° |
| 2026-04-25 23:14 | -14.71206 | -48.63699 | 36859 ft | 475 kts | 200° |
| 2026-04-25 23:15 | -14.74262 | -48.64987 | 36389 ft | 473 kts | 200° |
| 2026-04-25 23:15 | -14.77311 | -48.66273 | 35931 ft | 473 kts | 200° |
| 2026-04-25 23:15 | -14.80368 | -48.67560 | 35486 ft | 474 kts | 200° |
| 2026-04-25 23:15 | -14.83427 | -48.68848 | 35038 ft | 475 kts | 200° |
| 2026-04-25 23:16 | -14.86499 | -48.70144 | 34604 ft | 476 kts | 200° |
| 2026-04-25 23:16 | -14.89570 | -48.71439 | 34180 ft | 478 kts | 200° |
| 2026-04-25 23:16 | -14.92657 | -48.72741 | 33727 ft | 479 kts | 200° |
| 2026-04-25 23:16 | -14.95740 | -48.74042 | 33244 ft | 479 kts | 200° |
| 2026-04-25 23:17 | -14.98836 | -48.75349 | 32777 ft | 480 kts | 200° |
| 2026-04-25 23:17 | -15.01897 | -48.76642 | 32312 ft | 481 kts | 200° |
| 2026-04-25 23:17 | -15.04994 | -48.77949 | 31864 ft | 482 kts | 200° |
| 2026-04-25 23:17 | -15.08107 | -48.79264 | 31414 ft | 482 kts | 200° |
| 2026-04-25 23:18 | -15.11214 | -48.80579 | 30975 ft | 484 kts | 200° |
| 2026-04-25 23:18 | -15.14342 | -48.81900 | 30544 ft | 484 kts | 200° |
| 2026-04-25 23:18 | -15.17462 | -48.83218 | 30121 ft | 485 kts | 200° |
| 2026-04-25 23:18 | -15.20585 | -48.84540 | 29636 ft | 483 kts | 200° |
| 2026-04-25 23:19 | -15.23692 | -48.85856 | 29141 ft | 480 kts | 200° |
| 2026-04-25 23:19 | -15.26782 | -48.87164 | 28639 ft | 478 kts | 200° |
| 2026-04-25 23:19 | -15.29856 | -48.88464 | 28107 ft | 475 kts | 200° |
| 2026-04-25 23:19 | -15.32905 | -48.89757 | 27593 ft | 472 kts | 200° |
| 2026-04-25 23:20 | -15.35899 | -48.91025 | 27084 ft | 468 kts | 200° |
| 2026-04-25 23:20 | -15.38907 | -48.92301 | 26590 ft | 465 kts | 200° |
| 2026-04-25 23:20 | -15.41889 | -48.93564 | 26097 ft | 463 kts | 200° |
| 2026-04-25 23:20 | -15.44869 | -48.94827 | 25616 ft | 460 kts | 200° |
| 2026-04-25 23:21 | -15.47822 | -48.96081 | 25138 ft | 457 kts | 201° |
| 2026-04-25 23:21 | -15.50754 | -48.97326 | 24677 ft | 454 kts | 201° |
| 2026-04-25 23:21 | -15.53670 | -48.98562 | 24212 ft | 452 kts | 201° |
| 2026-04-25 23:21 | -15.56570 | -48.99793 | 23762 ft | 449 kts | 201° |
| 2026-04-25 23:22 | -15.59456 | -49.01020 | 23258 ft | 447 kts | 201° |
| 2026-04-25 23:22 | -15.62320 | -49.02237 | 22728 ft | 442 kts | 201° |
| 2026-04-25 23:22 | -15.65158 | -49.03444 | 22204 ft | 438 kts | 201° |
| 2026-04-25 23:23 | -15.70748 | -49.05819 | 21178 ft | 430 kts | 201° |
| 2026-04-25 23:23 | -15.73505 | -49.06993 | 20686 ft | 426 kts | 201° |
| 2026-04-25 23:23 | -15.76237 | -49.08156 | 20196 ft | 422 kts | 201° |
| 2026-04-25 23:23 | -15.78946 | -49.09308 | 19713 ft | 419 kts | 201° |
| 2026-04-25 23:24 | -15.81632 | -49.10450 | 19244 ft | 415 kts | 201° |
| 2026-04-25 23:24 | -15.84294 | -49.11586 | 18779 ft | 412 kts | 201° |
| 2026-04-25 23:24 | -15.86903 | -49.12696 | 18317 ft | 409 kts | 201° |
| 2026-04-25 23:24 | -15.89529 | -49.13815 | 17861 ft | 405 kts | 201° |
| 2026-04-25 23:25 | -15.92123 | -49.14921 | 17406 ft | 401 kts | 202° |
| 2026-04-25 23:25 | -15.94696 | -49.16019 | 16969 ft | 399 kts | 202° |
| 2026-04-25 23:25 | -15.97260 | -49.17111 | 16537 ft | 396 kts | 202° |
| 2026-04-25 23:25 | -15.99800 | -49.18195 | 16108 ft | 393 kts | 202° |
| 2026-04-25 23:26 | -16.02321 | -49.19271 | 15689 ft | 390 kts | 202° |
| 2026-04-25 23:26 | -16.04818 | -49.20336 | 15267 ft | 387 kts | 202° |
| 2026-04-25 23:26 | -16.07294 | -49.21393 | 14998 ft | 384 kts | 202° |
| 2026-04-25 23:26 | -16.09766 | -49.22450 | 14521 ft | 383 kts | 202° |
| 2026-04-25 23:27 | -16.12214 | -49.23494 | 14019 ft | 377 kts | 202° |
| 2026-04-25 23:27 | -16.14585 | -49.24508 | 13502 ft | 358 kts | 202° |
| 2026-04-25 23:27 | -16.16818 | -49.25462 | 13031 ft | 338 kts | 202° |
| 2026-04-25 23:27 | -16.18939 | -49.26370 | 12597 ft | 321 kts | 202° |
| 2026-04-25 23:28 | -16.20936 | -49.27223 | 12186 ft | 308 kts | 202° |
| 2026-04-25 23:28 | -16.22890 | -49.28059 | 11784 ft | 300 kts | 202° |
| 2026-04-25 23:28 | -16.24809 | -49.28879 | 11384 ft | 297 kts | 202° |
| 2026-04-25 23:28 | -16.26720 | -49.29697 | 10990 ft | 296 kts | 202° |
| 2026-04-25 23:29 | -16.28623 | -49.30512 | 10596 ft | 295 kts | 202° |
| 2026-04-25 23:29 | -16.30514 | -49.31321 | 10205 ft | 293 kts | 202° |
| 2026-04-25 23:29 | -16.32292 | -49.32083 | 9825 ft | 291 kts | 202° |
| 2026-04-25 23:29 | -16.34160 | -49.32881 | 9420 ft | 289 kts | 202° |
| 2026-04-25 23:30 | -16.35999 | -49.33708 | 9041 ft | 287 kts | 207° |
| 2026-04-25 23:30 | -16.37612 | -49.34925 | 8712 ft | 286 kts | 220° |
| 2026-04-25 23:30 | -16.39091 | -49.36224 | 8406 ft | 276 kts | 218° |
| 2026-04-25 23:30 | -16.40553 | -49.37462 | 8129 ft | 265 kts | 218° |
| 2026-04-25 23:31 | -16.41945 | -49.38662 | 7907 ft | 254 kts | 219° |
| 2026-04-25 23:31 | -16.43283 | -49.39819 | 7669 ft | 246 kts | 219° |
| 2026-04-25 23:31 | -16.44528 | -49.40894 | 7459 ft | 213 kts | 219° |
| 2026-04-25 23:31 | -16.45643 | -49.41856 | 7306 ft | 202 kts | 218° |
| 2026-04-25 23:32 | -16.46707 | -49.42770 | 7156 ft | 194 kts | 218° |
| 2026-04-25 23:32 | -16.47858 | -49.43446 | 6945 ft | 189 kts | 195° |
| 2026-04-25 23:32 | -16.49141 | -49.43630 | 6743 ft | 182 kts | 177° |
| 2026-04-25 23:32 | -16.50323 | -49.43371 | 6539 ft | 170 kts | 158° |
| 2026-04-25 23:33 | -16.51347 | -49.42752 | 6350 ft | 172 kts | 140° |
| 2026-04-25 23:33 | -16.52130 | -49.41808 | 6155 ft | 173 kts | 122° |
| 2026-04-25 23:33 | -16.52711 | -49.40731 | 5979 ft | 170 kts | 121° |
| 2026-04-25 23:33 | -16.53328 | -49.39667 | 5789 ft | 172 kts | 121° |
| 2026-04-25 23:34 | -16.53927 | -49.38604 | 5594 ft | 172 kts | 121° |
| 2026-04-25 23:34 | -16.54531 | -49.37531 | 5399 ft | 171 kts | 121° |
| 2026-04-25 23:34 | -16.55131 | -49.36465 | 5265 ft | 173 kts | 121° |
| 2026-04-25 23:34 | -16.55736 | -49.35388 | 5054 ft | 171 kts | 121° |
| 2026-04-25 23:35 | -16.56338 | -49.34318 | 4845 ft | 169 kts | 121° |
| 2026-04-25 23:35 | -16.56905 | -49.33308 | 4624 ft | 153 kts | 121° |
| 2026-04-25 23:35 | -16.57424 | -49.32379 | 4433 ft | 145 kts | 121° |
| 2026-04-25 23:35 | -16.57935 | -49.31479 | 4249 ft | 143 kts | 121° |
| 2026-04-25 23:36 | -16.58427 | -49.30596 | 4092 ft | 138 kts | 121° |
| 2026-04-25 23:36 | -16.58915 | -49.29736 | 3918 ft | 141 kts | 121° |
| 2026-04-25 23:36 | -16.59406 | -49.28856 | 3748 ft | 139 kts | 121° |
| 2026-04-25 23:36 | -16.59885 | -49.28012 | 3576 ft | 134 kts | 121° |
| 2026-04-25 23:37 | -16.60358 | -49.27159 | 3416 ft | 137 kts | 120° |
| 2026-04-25 23:37 | -16.60851 | -49.26289 | 3239 ft | 141 kts | 121° |
| 2026-04-25 23:37 | -16.61347 | -49.25403 | 3047 ft | 140 kts | 120° |
| 2026-04-25 23:37 | -16.61849 | -49.24516 | 2849 ft | 144 kts | 120° |
| 2026-04-25 23:38 | -16.62353 | -49.23611 | 2646 ft | 142 kts | 120° |
| 2026-04-25 23:38 | -16.62820 | -49.22776 | 2472 ft | 121 kts | 120° |
| 2026-04-25 23:38 | -16.63174 | -49.22146 | 2456 ft | 77 kts | 120° |
| 2026-04-25 23:38 | -16.63357 | -49.21826 | 2460 ft | 50 kts | 121° |
| 2026-04-25 23:39 | -16.63454 | -49.21634 | 2460 ft | 29 kts | 103° |
| 2026-04-25 23:39 | -16.63468 | -49.21466 | 2456 ft | 0 kts | 94° |
| 2026-04-25 23:39 | -16.63468 | -49.21464 | 2456 ft | 2 kts | 94° |
| 2026-04-25 23:39 | -16.63472 | -49.21419 | 2456 ft | 9 kts | 95° |
| 2026-04-25 23:40 | -16.63480 | -49.21338 | 2458 ft | 13 kts | 97° |
| 2026-04-25 23:40 | -16.63502 | -49.21231 | 2456 ft | 17 kts | 112° |
| 2026-04-25 23:40 | -16.63567 | -49.21113 | 2456 ft | 20 kts | 121° |
| 2026-04-25 23:40 | -16.63610 | -49.21052 | 2456 ft | 10 kts | 147° |
| 2026-04-25 23:41 | -16.63686 | -49.21066 | 2459 ft | 14 kts | 216° |
| 2026-04-25 23:41 | -16.63777 | -49.21124 | 2458 ft | 17 kts | 213° |
| 2026-04-25 23:41 | -16.63818 | -49.21219 | 2456 ft | 13 kts | 259° |
| 2026-04-25 23:41 | -16.63842 | -49.21324 | 2458 ft | 17 kts | 254° |
| 2026-04-25 23:42 | -16.63795 | -49.21441 | 2457 ft | 20 kts | 302° |
| 2026-04-25 23:42 | -16.63725 | -49.21581 | 2460 ft | 24 kts | 298° |
| 2026-04-25 23:42 | -16.63632 | -49.21736 | 2455 ft | 27 kts | 300° |
| 2026-04-25 23:42 | -16.63531 | -49.21915 | 2458 ft | 30 kts | 300° |
| 2026-04-25 23:43 | -16.63434 | -49.22089 | 2459 ft | 15 kts | 298° |
| 2026-04-25 23:43 | -16.63373 | -49.22191 | 2453 ft | 18 kts | 303° |
| 2026-04-25 23:43 | -16.63304 | -49.22320 | 2453 ft | 21 kts | 297° |
| 2026-04-25 23:43 | -16.63295 | -49.22420 | 2453 ft | 12 kts | 212° |
| 2026-04-25 23:44 | -16.63334 | -49.22440 | 2453 ft | 0 kts | 205° |